KHPT/HPT METAR and TAF weather

Enter ICAO airport designator
Station Type Date Time Source
KHPT METAR 2018/12/15 22:35 UTC NOAA

KHPT 152235Z AUTO 23003KT 10SM CLR 02/00 A3013 RMK AO2


Station Type Date Time Source
KHPT Decoded METAR 2018/12/15 22:35 UTC NOAA

Station name not available
Dec 15, 2018 - 05:35 PM EST / 2018.12.15 2235 UTC
Wind: from the SW (230 degrees) at 3 MPH (3 KT):0
Visibility: 10 mile(s):0
Sky conditions: clear
Temperature: 35 F (2 C)
Dew Point: 32 F (0 C)
Relative Humidity: 86%
Pressure (altimeter): 30.13 in. Hg (1020 hPa)
ob: KHPT 152235Z AUTO 23003KT 10SM CLR 02/00 A3013 RMK AO2
cycle: 22

Station Type Date Time Source
KHPT TAF UTC NOAA

Error!


Example: see airport list